Time;durP1;ratioP1;P1;durP2;ratioP2;P2;SDS_P1;SDS_P2;PMS_P1;PMS_P2;Temp;Humidity;BMP_temperature;BMP_pressure;BME280_temperature;BME280_humidity;BME280_pressure;Samples;Min_cycle;Max_cycle;Signal;HPM_P1;HPM_P2
2023/04/22 00:01:04;;;;;;;5.25;2.67;;;20.20;64.50;;;;;;4993494;28;20213;-49
2023/04/22 00:03:34;;;;;;;4.38;2.70;;;20.20;64.60;;;;;;5010432;28;20729;-53
2023/04/22 00:06:05;;;;;;;3.22;2.40;;;20.20;64.60;;;;;;5012512;28;20224;-51
2023/04/22 00:08:36;;;;;;;4.43;2.50;;;20.20;64.60;;;;;;5012663;28;20204;-51
2023/04/22 00:11:08;;;;;;;3.83;2.58;;;20.20;64.70;;;;;;5009979;28;20196;-54
2023/04/22 00:13:39;;;;;;;2.80;2.20;;;20.20;64.70;;;;;;4992824;28;20204;-54
2023/04/22 00:16:10;;;;;;;3.53;2.75;;;20.30;64.70;;;;;;4992081;28;20225;-52
2023/04/22 00:18:40;;;;;;;3.13;2.50;;;20.30;64.70;;;;;;4992780;28;20202;-53
2023/04/22 00:21:11;;;;;;;4.18;2.60;;;20.30;64.60;;;;;;4993378;28;20734;-51
2023/04/22 00:23:44;;;;;;;3.30;2.40;;;20.30;64.60;;;;;;4993489;28;20232;-52
2023/04/22 00:26:16;;;;;;;3.40;2.67;;;20.40;64.70;;;;;;4993816;28;20229;-52
2023/04/22 00:28:47;;;;;;;3.70;2.63;;;20.30;64.50;;;;;;4993238;28;20201;-49
2023/04/22 00:31:17;;;;;;;3.65;2.40;;;20.40;64.60;;;;;;4992309;28;20216;-50
2023/04/22 00:33:48;;;;;;;2.75;2.33;;;20.40;64.60;;;;;;5011499;28;20212;-51
2023/04/22 00:36:18;;;;;;;2.78;2.20;;;20.40;64.60;;;;;;5012281;28;20205;-53
2023/04/22 00:38:51;;;;;;;2.55;2.03;;;20.50;64.60;;;;;;4995256;28;20193;-50
2023/04/22 00:41:24;;;;;;;2.42;2.05;;;20.50;64.60;;;;;;4993053;28;20699;-50
2023/04/22 00:43:54;;;;;;;3.13;2.30;;;20.40;64.50;;;;;;4992794;28;20229;-52
2023/04/22 00:46:25;;;;;;;2.35;2.13;;;20.50;64.50;;;;;;4992233;28;20698;-53
2023/04/22 00:48:56;;;;;;;3.60;2.60;;;20.50;64.50;;;;;;4992913;28;20628;-52
2023/04/22 00:51:27;;;;;;;2.53;2.20;;;20.50;64.50;;;;;;4992983;28;20194;-53
2023/04/22 00:53:57;;;;;;;2.53;2.33;;;20.50;64.50;;;;;;4992335;28;20201;-52
2023/04/22 00:56:31;;;;;;;5.05;2.45;;;20.50;64.60;;;;;;4992370;28;20221;-54
2023/04/22 00:59:03;;;;;;;3.40;2.45;;;20.60;64.50;;;;;;4992375;28;20676;-51
2023/04/22 01:01:34;;;;;;;4.47;2.38;;;20.60;64.40;;;;;;4992644;28;20198;-54
2023/04/22 01:04:06;;;;;;;3.85;2.17;;;20.60;64.40;;;;;;5012194;28;20228;-53
2023/04/22 01:06:38;;;;;;;4.03;2.60;;;20.60;64.40;;;;;;5011962;28;20614;-51
2023/04/22 01:09:10;;;;;;;2.40;2.20;;;20.60;65.10;;;;;;5012585;28;20216;-50
2023/04/22 01:11:42;;;;;;;2.83;2.47;;;20.60;64.30;;;;;;5012335;28;20201;-53
2023/04/22 01:14:13;;;;;;;2.60;2.40;;;20.60;64.30;;;;;;5012337;28;20201;-53
2023/04/22 01:16:45;;;;;;;2.63;2.42;;;20.60;64.30;;;;;;5011899;28;20221;-53
2023/04/22 01:19:15;;;;;;;2.97;2.30;;;20.70;64.50;;;;;;5011972;28;20200;-52
2023/04/22 01:21:48;;;;;;;2.65;2.42;;;20.70;64.40;;;;;;5011729;28;20209;-50
2023/04/22 01:24:20;;;;;;;2.70;2.38;;;20.70;64.30;;;;;;5012207;28;20233;-52
2023/04/22 01:26:51;;;;;;;3.58;2.45;;;20.70;64.30;;;;;;5011967;28;20228;-52
2023/04/22 01:29:22;;;;;;;3.22;2.47;;;20.80;64.30;;;;;;5011487;28;20200;-53
2023/04/22 01:31:53;;;;;;;3.00;2.38;;;20.80;64.30;;;;;;4998036;28;20201;-55
2023/04/22 01:34:24;;;;;;;2.88;2.58;;;20.80;64.30;;;;;;4995747;28;20193;-54
2023/04/22 01:36:55;;;;;;;2.90;2.50;;;20.80;64.30;;;;;;4985092;28;20224;-55
2023/04/22 01:39:28;;;;;;;3.13;2.42;;;20.80;64.30;;;;;;4983587;28;20197;-54
2023/04/22 01:41:59;;;;;;;3.00;2.53;;;20.80;64.20;;;;;;4990918;28;20204;-54
2023/04/22 01:44:30;;;;;;;2.78;2.47;;;20.80;64.20;;;;;;4991060;28;20308;-50
2023/04/22 01:47:00;;;;;;;2.85;2.22;;;20.80;64.10;;;;;;4990163;28;20214;-51
2023/04/22 01:49:31;;;;;;;2.58;2.10;;;20.80;64.10;;;;;;4991297;28;20198;-50
2023/04/22 01:52:02;;;;;;;3.05;2.33;;;20.90;64.20;;;;;;4991608;28;20190;-51
2023/04/22 01:54:35;;;;;;;2.30;2.10;;;20.80;64.10;;;;;;4991107;28;20624;-54
2023/04/22 01:57:12;;;;;;;2.67;2.47;;;20.80;64.20;;;;;;4990873;28;20681;-51
2023/04/22 01:59:43;;;;;;;2.70;2.50;;;20.80;64.20;;;;;;4991442;28;20256;-53
2023/04/22 02:02:14;;;;;;;2.25;2.05;;;20.90;64.20;;;;;;4991800;28;20205;-54
2023/04/22 02:04:44;;;;;;;2.53;2.33;;;20.90;64.20;;;;;;4991081;28;20271;-50
2023/04/22 02:07:15;;;;;;;2.38;2.17;;;20.90;64.20;;;;;;4991675;28;20196;-50
2023/04/22 02:09:48;;;;;;;2.63;2.42;;;20.90;64.20;;;;;;4991460;28;20204;-50
2023/04/22 02:12:18;;;;;;;2.55;2.35;;;20.90;64.20;;;;;;4991388;28;20193;-55
2023/04/22 02:14:49;;;;;;;2.67;2.47;;;20.90;64.10;;;;;;5001701;28;20645;-53
2023/04/22 02:17:21;;;;;;;2.20;1.88;;;20.90;64.10;;;;;;5011034;28;20201;-52
2023/04/22 02:19:51;;;;;;;3.35;2.50;;;21.00;64.20;;;;;;5010967;28;20208;-51
2023/04/22 02:22:22;;;;;;;2.28;2.08;;;21.00;64.10;;;;;;5010398;28;20200;-54
2023/04/22 02:24:55;;;;;;;2.30;2.10;;;21.00;64.10;;;;;;5011456;28;20221;-55
2023/04/22 02:27:26;;;;;;;2.30;2.10;;;21.00;64.10;;;;;;5010754;28;20209;-52
2023/04/22 02:29:56;;;;;;;2.20;1.83;;;21.00;64.00;;;;;;4994857;28;20205;-54
2023/04/22 02:32:27;;;;;;;2.13;1.92;;;21.00;64.10;;;;;;4990975;28;20213;-55
2023/04/22 02:34:57;;;;;;;3.97;1.80;;;21.00;64.20;;;;;;4989941;28;20194;-57
2023/04/22 02:37:28;;;;;;;2.55;2.00;;;21.10;64.20;;;;;;4991947;28;20194;-48
2023/04/22 02:40:03;;;;;;;4.10;2.38;;;21.00;64.10;;;;;;4991561;28;20693;-56
2023/04/22 02:42:34;;;;;;;2.38;2.00;;;21.10;64.30;;;;;;4990941;28;20208;-57
2023/04/22 02:45:05;;;;;;;2.67;2.13;;;21.10;64.20;;;;;;4994496;28;20233;-53
2023/04/22 02:47:36;;;;;;;2.58;2.35;;;21.10;64.20;;;;;;4995661;28;20201;-55
2023/04/22 02:50:07;;;;;;;2.05;1.85;;;21.10;64.20;;;;;;4995370;28;20228;-57
2023/04/22 02:52:38;;;;;;;2.22;2.00;;;21.20;64.20;;;;;;4995179;28;20567;-57
2023/04/22 02:55:11;;;;;;;2.10;1.85;;;21.10;64.10;;;;;;4995150;28;20708;-57
2023/04/22 02:57:42;;;;;;;2.33;2.13;;;21.20;64.10;;;;;;4995225;28;20654;-57
2023/04/22 03:00:13;;;;;;;2.40;2.20;;;21.20;64.10;;;;;;4995316;28;20197;-56
2023/04/22 03:02:44;;;;;;;2.20;1.95;;;21.20;64.10;;;;;;5005131;28;20240;-50
2023/04/22 03:05:14;;;;;;;2.63;1.90;;;21.20;64.00;;;;;;5014312;28;20228;-58
2023/04/22 03:07:46;;;;;;;5.88;2.15;;;21.20;64.00;;;;;;5014795;28;20228;-56
2023/04/22 03:10:18;;;;;;;2.60;2.40;;;21.20;64.00;;;;;;5014962;28;20631;-58
2023/04/22 03:12:49;;;;;;;2.03;1.83;;;21.30;64.00;;;;;;5014718;28;20201;-55
2023/04/22 03:15:20;;;;;;;2.67;2.20;;;21.30;64.00;;;;;;5014451;28;20705;-54
2023/04/22 03:17:50;;;;;;;2.70;2.15;;;21.30;63.90;;;;;;5014116;28;20251;-55
2023/04/22 03:20:21;;;;;;;2.28;2.08;;;21.30;63.90;;;;;;5014124;28;20196;-57
2023/04/22 03:22:52;;;;;;;2.45;1.80;;;21.30;63.90;;;;;;5013940;28;20727;-57
2023/04/22 03:25:24;;;;;;;3.95;2.20;;;21.30;63.80;;;;;;5014678;28;20228;-54
2023/04/22 03:27:55;;;;;;;2.75;2.50;;;21.30;63.80;;;;;;4998771;28;20553;-56
2023/04/22 03:30:26;;;;;;;2.75;2.55;;;21.40;63.80;;;;;;4994839;28;20228;-57
2023/04/22 03:32:57;;;;;;;2.20;2.00;;;21.40;63.80;;;;;;5006433;28;20201;-55
2023/04/22 03:35:27;;;;;;;2.30;2.20;;;21.40;63.70;;;;;;5014058;28;20220;-55
2023/04/22 03:37:58;;;;;;;4.47;2.33;;;21.40;63.70;;;;;;5014017;28;20259;-50
2023/04/22 03:40:31;;;;;;;3.13;2.38;;;21.40;63.60;;;;;;5013802;28;20197;-55
2023/04/22 03:43:02;;;;;;;3.80;2.55;;;21.40;63.70;;;;;;5013729;28;20661;-52
2023/04/22 03:45:33;;;;;;;6.00;3.70;;;21.50;63.70;;;;;;4994680;28;20229;-57
2023/04/22 03:48:03;;;;;;;5.45;3.90;;;21.50;63.70;;;;;;4994373;28;20193;-57
2023/04/22 03:50:34;;;;;;;4.07;3.67;;;21.50;63.70;;;;;;4994448;28;20201;-55
2023/04/22 03:53:05;;;;;;;5.55;4.43;;;21.60;63.70;;;;;;4993677;28;20193;-53
2023/04/22 03:55:37;;;;;;;5.38;4.30;;;21.60;63.60;;;;;;4993286;28;20217;-57
2023/04/22 03:58:08;;;;;;;5.85;4.50;;;21.60;63.60;;;;;;4993650;28;20574;-57
2023/04/22 04:00:39;;;;;;;4.60;4.20;;;21.70;63.60;;;;;;4993559;28;20667;-57
2023/04/22 04:03:09;;;;;;;4.95;4.45;;;21.70;63.50;;;;;;4993271;28;20197;-54
2023/04/22 04:05:40;;;;;;;4.68;4.18;;;21.70;63.50;;;;;;4992802;28;20229;-57
2023/04/22 04:08:11;;;;;;;5.38;4.68;;;21.70;63.40;;;;;;4993459;28;20229;-51
2023/04/22 04:10:43;;;;;;;5.90;4.65;;;21.70;63.30;;;;;;4994137;28;20201;-57
2023/04/22 04:13:14;;;;;;;6.55;4.70;;;21.70;63.20;;;;;;4993421;28;20666;-57
2023/04/22 04:15:45;;;;;;;5.97;4.70;;;21.80;63.20;;;;;;4993411;28;20225;-56
2023/04/22 04:18:15;;;;;;;5.30;4.80;;;21.80;63.10;;;;;;4993220;28;20205;-58
2023/04/22 04:20:46;;;;;;;5.13;4.53;;;21.80;63.10;;;;;;4992971;28;20205;-53
2023/04/22 04:23:17;;;;;;;5.70;5.10;;;21.80;63.00;;;;;;4993159;28;20742;-57
2023/04/22 04:25:49;;;;;;;6.65;5.47;;;21.90;63.00;;;;;;4993606;28;20237;-57
2023/04/22 04:28:20;;;;;;;6.35;5.18;;;21.90;63.10;;;;;;4993575;28;20201;-55
2023/04/22 04:30:52;;;;;;;5.72;5.07;;;21.90;63.10;;;;;;4993579;28;20198;-56
2023/04/22 04:33:23;;;;;;;6.80;5.82;;;21.90;63.10;;;;;;5009025;28;20251;-54
2023/04/22 04:35:53;;;;;;;5.97;5.18;;;22.00;63.10;;;;;;5012953;28;20225;-57
2023/04/22 04:38:24;;;;;;;6.60;5.25;;;22.00;63.00;;;;;;5012986;28;20897;-51
2023/04/22 04:40:56;;;;;;;6.07;5.05;;;22.00;62.90;;;;;;5012725;28;20200;-52
2023/04/22 04:43:28;;;;;;;5.93;5.28;;;22.00;62.90;;;;;;5006104;28;20948;-56
2023/04/22 04:45:59;;;;;;;6.18;5.10;;;22.00;62.80;;;;;;4992253;28;20685;-54
2023/04/22 04:48:34;;;;;;;5.80;5.30;;;22.00;62.70;;;;;;4993022;28;20194;-57
2023/04/22 04:51:05;;;;;;;5.25;4.75;;;22.10;62.70;;;;;;4993147;28;20233;-54
2023/04/22 04:53:36;;;;;;;5.63;5.03;;;22.00;62.60;;;;;;4993505;28;20205;-56
2023/04/22 04:56:08;;;;;;;6.15;5.55;;;22.10;62.70;;;;;;4992373;28;20229;-53
2023/04/22 04:58:39;;;;;;;5.80;5.30;;;22.10;62.60;;;;;;4992444;28;20307;-57
2023/04/22 05:01:09;;;;;;;5.50;5.00;;;22.10;62.60;;;;;;4992685;28;20193;-57
2023/04/22 05:03:40;;;;;;;5.38;4.88;;;22.10;62.60;;;;;;5010477;28;20203;-56
2023/04/22 05:06:11;;;;;;;5.55;5.05;;;22.00;62.50;;;;;;5011552;28;20651;-52
2023/04/22 05:08:42;;;;;;;5.85;5.20;;;22.10;62.60;;;;;;5012607;28;20632;-57
2023/04/22 05:11:14;;;;;;;5.32;4.82;;;22.10;62.60;;;;;;5012032;28;20207;-52
2023/04/22 05:13:45;;;;;;;5.85;5.35;;;22.10;62.60;;;;;;5011901;28;20196;-53
2023/04/22 05:16:16;;;;;;;5.20;4.78;;;22.10;62.50;;;;;;5011851;28;20561;-56
2023/04/22 05:18:46;;;;;;;5.93;5.13;;;22.10;62.50;;;;;;4992157;28;20209;-56
2023/04/22 05:21:17;;;;;;;4.88;4.38;;;22.10;62.50;;;;;;4992580;28;20586;-56
2023/04/22 05:23:48;;;;;;;5.30;4.80;;;22.10;62.50;;;;;;4992412;28;20233;-57
2023/04/22 05:26:20;;;;;;;4.82;4.43;;;22.10;62.50;;;;;;4992639;28;20233;-57
2023/04/22 05:28:51;;;;;;;5.05;4.65;;;22.10;62.50;;;;;;4992224;28;20669;-56
2023/04/22 05:31:21;;;;;;;5.22;4.72;;;22.10;62.30;;;;;;4991710;28;20201;-58
2023/04/22 05:33:52;;;;;;;5.30;4.80;;;22.10;62.30;;;;;;5011488;28;20208;-58
2023/04/22 05:36:23;;;;;;;5.57;4.78;;;22.10;62.10;;;;;;5011990;28;20720;-58
2023/04/22 05:38:53;;;;;;;5.18;4.68;;;22.10;62.00;;;;;;5012164;28;20196;-57
2023/04/22 05:41:26;;;;;;;4.95;4.50;;;22.10;61.90;;;;;;5011908;28;20201;-55
2023/04/22 05:43:56;;;;;;;5.47;4.97;;;22.10;61.80;;;;;;5004483;28;20244;-57
2023/04/22 05:46:27;;;;;;;4.68;4.28;;;22.10;61.70;;;;;;4992155;28;20236;-57
2023/04/22 05:48:58;;;;;;;4.95;4.53;;;22.10;61.70;;;;;;4992152;28;20676;-57
2023/04/22 05:51:28;;;;;;;4.80;4.40;;;22.10;61.70;;;;;;4991922;28;20201;-58
2023/04/22 05:53:59;;;;;;;4.65;4.25;;;22.10;61.80;;;;;;4992001;28;20263;-58
2023/04/22 05:56:31;;;;;;;6.63;4.85;;;22.00;61.80;;;;;;4992177;28;20225;-52
2023/04/22 05:59:02;;;;;;;6.45;4.93;;;22.00;62.10;;;;;;4992165;28;20200;-55
2023/04/22 06:01:33;;;;;;;5.32;4.82;;;22.00;62.30;;;;;;4991829;28;20198;-56
2023/04/22 06:04:11;;;;;;;5.43;4.55;;;22.00;62.40;;;;;;5011372;28;20223;-54
2023/04/22 06:06:42;;;;;;;5.05;4.57;;;22.00;62.40;;;;;;4993197;28;20220;-56
2023/04/22 06:09:12;;;;;;;5.18;4.68;;;22.10;62.40;;;;;;4991602;28;20227;-58
2023/04/22 06:11:45;;;;;;;5.43;4.55;;;22.10;62.40;;;;;;4991710;28;20208;-57
2023/04/22 06:14:15;;;;;;;4.65;4.20;;;22.10;62.40;;;;;;4991843;28;20208;-56
2023/04/22 06:16:46;;;;;;;6.20;4.68;;;22.10;62.30;;;;;;4992287;28;20224;-58
2023/04/22 06:19:17;;;;;;;4.88;3.97;;;22.10;62.30;;;;;;4995497;28;20193;-54
2023/04/22 06:21:47;;;;;;;4.90;4.40;;;22.10;62.10;;;;;;4995822;28;20201;-58
2023/04/22 06:24:18;;;;;;;5.13;4.47;;;22.10;62.00;;;;;;4995995;28;20665;-57
2023/04/22 06:26:51;;;;;;;8.18;4.50;;;22.00;61.80;;;;;;4996007;28;20232;-57
2023/04/22 06:29:21;;;;;;;5.18;3.92;;;22.00;61.70;;;;;;4995806;28;20194;-55
2023/04/22 06:31:52;;;;;;;5.53;4.50;;;22.00;61.60;;;;;;4999077;28;20207;-58
2023/04/22 06:34:23;;;;;;;5.40;4.22;;;22.00;61.60;;;;;;5015649;28;20278;-54
2023/04/22 06:36:53;;;;;;;6.07;4.18;;;22.00;61.50;;;;;;5015125;28;20220;-58
2023/04/22 06:39:24;;;;;;;4.85;4.30;;;22.00;61.40;;;;;;5015407;28;20630;-57
2023/04/22 06:41:57;;;;;;;6.10;4.55;;;21.90;61.30;;;;;;5015205;28;20204;-58
2023/04/22 06:44:27;;;;;;;5.25;4.45;;;21.90;61.20;;;;;;4998026;28;20281;-57
2023/04/22 06:46:58;;;;;;;5.90;4.50;;;21.90;61.30;;;;;;4995351;28;20305;-57
2023/04/22 06:49:28;;;;;;;5.05;4.55;;;21.90;61.20;;;;;;4978034;28;20222;-57
2023/04/22 06:51:59;;;;;;;5.47;4.55;;;21.90;61.20;;;;;;4975223;28;20202;-54
2023/04/22 06:54:30;;;;;;;5.28;4.30;;;21.80;61.10;;;;;;4975766;28;20214;-55
2023/04/22 06:57:03;;;;;;;5.15;4.38;;;21.80;61.10;;;;;;4975438;28;20308;-57
2023/04/22 06:59:34;;;;;;;5.35;4.45;;;21.80;61.00;;;;;;4975546;28;20202;-53
2023/04/22 07:02:04;;;;;;;5.10;4.60;;;21.80;61.00;;;;;;4984669;28;20661;-57
2023/04/22 07:04:35;;;;;;;4.95;4.30;;;21.80;61.00;;;;;;5014578;28;20212;-58
2023/04/22 07:07:06;;;;;;;4.85;4.45;;;21.80;61.10;;;;;;5013950;28;20236;-58
2023/04/22 07:09:36;;;;;;;5.25;4.75;;;21.80;61.00;;;;;;5014293;28;20201;-55
2023/04/22 07:12:09;;;;;;;4.95;4.55;;;21.70;60.90;;;;;;5014274;28;20209;-58
2023/04/22 07:14:43;;;;;;;5.20;4.50;;;21.70;60.90;;;;;;5014145;28;20224;-54
2023/04/22 07:17:14;;;;;;;4.80;4.30;;;21.70;60.80;;;;;;5008903;28;20613;-54
2023/04/22 07:19:45;;;;;;;5.80;4.88;;;21.70;60.80;;;;;;4994304;28;20208;-57
2023/04/22 07:22:15;;;;;;;5.13;4.45;;;21.60;60.80;;;;;;4993373;28;20193;-58
2023/04/22 07:24:46;;;;;;;5.35;4.85;;;21.60;60.80;;;;;;4993824;28;20678;-52
2023/04/22 07:27:19;;;;;;;5.10;4.45;;;21.60;60.70;;;;;;4993718;28;20217;-56
2023/04/22 07:29:50;;;;;;;5.75;5.20;;;21.60;60.70;;;;;;4993170;28;20206;-54
2023/04/22 07:32:21;;;;;;;5.40;4.63;;;21.50;60.50;;;;;;5001336;28;20271;-57
2023/04/22 07:34:51;;;;;;;4.65;4.15;;;21.60;60.60;;;;;;5013672;28;20204;-52
2023/04/22 07:37:23;;;;;;;4.82;4.43;;;21.50;60.50;;;;;;4994035;28;20256;-57
2023/04/22 07:39:54;;;;;;;5.25;4.75;;;21.50;60.60;;;;;;4993725;28;20209;-58
2023/04/22 07:42:26;;;;;;;4.97;4.43;;;21.50;60.60;;;;;;4993862;28;20205;-57
2023/04/22 07:44:57;;;;;;;5.32;4.82;;;21.50;60.60;;;;;;4994369;28;20193;-56
2023/04/22 07:47:28;;;;;;;5.45;4.95;;;21.50;60.60;;;;;;4994193;28;20233;-56
2023/04/22 07:49:58;;;;;;;5.70;5.20;;;21.40;60.60;;;;;;4994052;28;20691;-55
2023/04/22 07:52:29;;;;;;;5.60;5.03;;;21.40;60.70;;;;;;4993480;28;20204;-57
2023/04/22 07:54:59;;;;;;;6.05;4.97;;;21.40;60.70;;;;;;4993795;28;20216;-57
2023/04/22 07:57:37;;;;;;;5.57;5.05;;;21.40;60.60;;;;;;4993659;28;20202;-57
2023/04/22 08:00:09;;;;;;;5.60;4.80;;;21.30;60.60;;;;;;4994282;28;20208;-56
2023/04/22 08:02:40;;;;;;;5.50;4.57;;;21.30;60.60;;;;;;5003782;28;20201;-53
2023/04/22 08:05:11;;;;;;;5.28;4.78;;;21.30;60.60;;;;;;5013533;28;20201;-58
2023/04/22 08:07:42;;;;;;;5.63;4.88;;;21.30;60.60;;;;;;5012941;28;20292;-53
2023/04/22 08:10:13;;;;;;;5.22;4.82;;;21.30;60.60;;;;;;5012639;28;20280;-55
2023/04/22 08:12:46;;;;;;;5.28;4.80;;;21.20;60.50;;;;;;4995343;28;20208;-52
2023/04/22 08:15:16;;;;;;;6.15;5.03;;;21.20;60.50;;;;;;4974468;28;20198;-58
2023/04/22 08:17:47;;;;;;;6.28;4.78;;;21.20;60.40;;;;;;4974035;28;20663;-58
2023/04/22 08:20:18;;;;;;;5.18;4.68;;;21.20;60.50;;;;;;4974506;28;20206;-57
2023/04/22 08:22:50;;;;;;;5.57;4.97;;;21.20;60.40;;;;;;4973703;28;20285;-57
2023/04/22 08:25:20;;;;;;;5.65;4.50;;;21.20;60.40;;;;;;4974729;28;20605;-58
2023/04/22 08:27:53;;;;;;;5.38;4.85;;;21.10;60.30;;;;;;4974068;28;20194;-58
2023/04/22 08:30:24;;;;;;;5.53;4.50;;;21.10;60.40;;;;;;4974188;28;20669;-58
2023/04/22 08:32:55;;;;;;;5.55;4.60;;;21.10;60.40;;;;;;4996936;28;20567;-56
2023/04/22 08:35:25;;;;;;;5.38;4.82;;;21.10;60.40;;;;;;5012531;28;20596;-54
2023/04/22 08:37:56;;;;;;;5.60;4.80;;;21.00;60.40;;;;;;5012678;28;20683;-58
2023/04/22 08:40:26;;;;;;;5.50;5.00;;;21.00;60.40;;;;;;5012660;28;20201;-55
2023/04/22 08:43:00;;;;;;;5.88;5.10;;;21.00;60.40;;;;;;5012685;28;20204;-58
2023/04/22 08:45:31;;;;;;;5.32;4.65;;;21.00;60.40;;;;;;5012570;28;20711;-57
2023/04/22 08:48:03;;;;;;;5.43;4.90;;;20.90;60.30;;;;;;5012702;28;20197;-58
2023/04/22 08:50:34;;;;;;;5.20;4.55;;;20.90;60.40;;;;;;5012006;28;20776;-57
2023/04/22 08:53:04;;;;;;;6.18;5.15;;;20.90;60.40;;;;;;4997384;28;20194;-58
2023/04/22 08:55:36;;;;;;;6.32;4.93;;;20.90;60.40;;;;;;4993036;28;20224;-58
2023/04/22 08:58:08;;;;;;;4.97;4.35;;;20.90;60.30;;;;;;4993078;28;20201;-58
2023/04/22 09:00:40;;;;;;;5.07;4.57;;;20.90;60.30;;;;;;4990655;28;20681;-58
2023/04/22 09:03:11;;;;;;;5.32;4.82;;;20.90;60.40;;;;;;5004365;28;20211;-56
2023/04/22 09:05:44;;;;;;;6.18;4.60;;;20.90;60.30;;;;;;5010505;28;20221;-57
2023/04/22 09:08:15;;;;;;;5.72;4.63;;;20.80;60.20;;;;;;5012296;28;20618;-57
2023/04/22 09:10:45;;;;;;;5.70;4.40;;;20.80;60.30;;;;;;5012169;28;20275;-57
2023/04/22 09:13:19;;;;;;;5.47;4.85;;;20.80;60.20;;;;;;5011777;28;20201;-55
2023/04/22 09:15:50;;;;;;;5.85;5.10;;;20.80;60.30;;;;;;4999150;28;20221;-55
2023/04/22 09:18:21;;;;;;;6.10;4.55;;;20.80;60.20;;;;;;4991635;28;20619;-56
2023/04/22 09:20:56;;;;;;;5.30;4.80;;;20.70;60.20;;;;;;4990874;28;20212;-57
2023/04/22 09:23:26;;;;;;;5.75;5.03;;;20.70;60.20;;;;;;4991175;28;20247;-57
2023/04/22 09:26:00;;;;;;;5.70;4.93;;;20.70;60.20;;;;;;4998597;22;20229;-57
2023/04/22 09:28:32;;;;;;;5.38;4.88;;;20.70;61.10;;;;;;4972872;28;20205;-57
2023/04/22 09:31:05;;;;;;;6.30;5.15;;;20.70;60.30;;;;;;4972585;28;20682;-57
2023/04/22 09:33:40;;;;;;;5.57;4.80;;;20.60;60.20;;;;;;4972078;28;20202;-55
2023/04/22 09:36:12;;;;;;;6.75;5.57;;;20.60;60.20;;;;;;4980179;28;20224;-56
2023/04/22 09:38:49;;;;;;;6.88;5.45;;;20.60;60.20;;;;;;4989910;28;20558;-57
2023/04/22 09:41:19;;;;;;;6.60;4.85;;;20.60;60.20;;;;;;4973028;28;20217;-54
2023/04/22 09:43:52;;;;;;;6.78;5.00;;;20.60;60.20;;;;;;4966448;28;20195;-56
2023/04/22 09:46:23;;;;;;;6.00;5.25;;;20.60;60.20;;;;;;4972492;28;20234;-58
2023/04/22 09:48:54;;;;;;;6.88;5.25;;;20.60;60.20;;;;;;4966050;28;20198;-58
2023/04/22 09:51:26;;;;;;;6.72;4.93;;;20.50;60.20;;;;;;4964100;28;20198;-59
2023/04/22 09:54:07;;;;;;;6.13;5.03;;;20.50;60.20;;;;;;4980765;28;20666;-57
2023/04/22 09:56:49;;;;;;;5.28;4.75;;;20.50;60.20;;;;;;4976771;28;20702;-58
2023/04/22 09:59:26;;;;;;;6.68;4.90;;;20.50;60.20;;;;;;4952613;28;20282;-58
2023/04/22 10:02:03;;;;;;;5.50;4.78;;;20.50;60.20;;;;;;4959842;28;20223;-56
2023/04/22 10:04:36;;;;;;;6.35;4.97;;;20.40;60.20;;;;;;4991353;28;20198;-57
2023/04/22 10:07:07;;;;;;;5.95;5.20;;;20.40;60.20;;;;;;4987577;28;20232;-55
2023/04/22 10:09:38;;;;;;;5.03;4.53;;;20.40;60.10;;;;;;4952411;28;20191;-58
2023/04/22 10:12:09;;;;;;;6.38;4.80;;;20.40;60.20;;;;;;4977339;28;20205;-58
2023/04/22 10:14:41;;;;;;;5.53;4.90;;;20.30;60.20;;;;;;4974070;28;20205;-57
2023/04/22 10:17:14;;;;;;;6.10;4.97;;;20.40;60.20;;;;;;4985517;28;20214;-57
2023/04/22 10:19:48;;;;;;;6.43;5.00;;;20.30;60.10;;;;;;4978055;28;20198;-57
2023/04/22 10:22:18;;;;;;;5.43;4.93;;;20.30;60.10;;;;;;4985278;28;20673;-57
2023/04/22 10:24:54;;;;;;;5.70;4.97;;;20.30;60.10;;;;;;4970731;28;20205;-58
2023/04/22 10:32:41;;;;;;;5.90;4.47;;;20.30;60.10;;;;;;5261418;22;20220;-45
2023/04/22 10:35:15;;;;;;;5.72;4.55;;;20.20;60.00;;;;;;4988927;28;20223;-51
2023/04/22 10:37:48;;;;;;;5.30;4.43;;;20.20;60.10;;;;;;4970231;28;20273;-48
2023/04/22 10:40:21;;;;;;;5.70;4.60;;;20.20;60.10;;;;;;4982989;28;20575;-51
2023/04/22 10:42:54;;;;;;;5.38;4.85;;;20.20;60.10;;;;;;4981871;28;20256;-49
2023/04/22 10:45:28;;;;;;;7.88;4.93;;;20.20;60.10;;;;;;4971520;28;20190;-48
2023/04/22 10:48:05;;;;;;;18.67;9.60;;;20.10;60.00;;;;;;4971772;28;20225;-51
2023/04/22 10:50:36;;;;;;;11.95;8.15;;;20.10;62.30;;;;;;4971754;28;20202;-50
2023/04/22 10:53:37;;;;;;;13.88;7.60;;;20.20;63.00;;;;;;4971131;28;20732;-50
2023/04/22 10:56:19;;;;;;;15.10;6.88;;;20.20;63.00;;;;;;4971311;28;20222;-48
2023/04/22 10:58:50;;;;;;;11.38;6.72;;;20.20;62.20;;;;;;4956594;28;20655;-51
2023/04/22 11:01:21;;;;;;;14.05;6.57;;;20.20;61.90;;;;;;4951775;28;20199;-48
2023/04/22 11:03:54;;;;;;;9.48;5.97;;;20.20;61.80;;;;;;4972664;28;20209;-51
2023/04/22 11:06:26;;;;;;;12.13;7.38;;;20.20;61.80;;;;;;4974867;28;20214;-49
2023/04/22 11:09:13;;;;;;;12.27;6.00;;;20.20;61.80;;;;;;4974881;28;20256;-51
2023/04/22 11:11:44;;;;;;;13.38;6.15;;;20.20;61.90;;;;;;4974679;28;20268;-52
2023/04/22 11:14:15;;;;;;;9.43;6.72;;;20.20;61.80;;;;;;4974753;28;20198;-49
2023/04/22 11:16:49;;;;;;;11.88;6.82;;;20.20;61.90;;;;;;4974843;28;20222;-52
2023/04/22 11:19:22;;;;;;;10.32;6.82;;;20.20;61.90;;;;;;4974514;28;20655;-50
2023/04/22 11:21:54;;;;;;;9.07;6.65;;;20.20;61.90;;;;;;4974061;28;20561;-51
2023/04/22 11:24:25;;;;;;;11.18;6.65;;;20.20;61.90;;;;;;4993716;28;20202;-45
2023/04/22 11:26:58;;;;;;;8.05;6.32;;;20.20;61.90;;;;;;4998686;22;20237;-53
2023/04/22 11:29:28;;;;;;;12.07;7.18;;;20.20;61.90;;;;;;4974226;28;20603;-54
2023/04/22 11:32:00;;;;;;;11.35;6.80;;;20.10;61.80;;;;;;4978485;28;20248;-54
2023/04/22 11:34:33;;;;;;;10.20;6.82;;;20.10;61.80;;;;;;4993604;28;20193;-50
2023/04/22 11:37:03;;;;;;;10.48;6.05;;;20.10;61.80;;;;;;4993774;28;20221;-51
2023/04/22 11:39:38;;;;;;;14.38;7.00;;;20.10;61.80;;;;;;4994134;28;20216;-52
2023/04/22 11:42:09;;;;;;;9.15;6.45;;;20.10;61.80;;;;;;4993022;28;20204;-50
2023/04/22 11:44:40;;;;;;;13.73;7.82;;;20.10;61.80;;;;;;4984487;28;20201;-51
2023/04/22 11:47:11;;;;;;;12.90;7.50;;;20.10;61.70;;;;;;4973516;28;20737;-52
2023/04/22 11:49:43;;;;;;;12.35;7.70;;;20.10;61.60;;;;;;4957706;28;20533;-52
2023/04/22 11:52:14;;;;;;;9.90;6.90;;;20.00;61.60;;;;;;4957039;28;20537;-53
2023/04/22 11:54:46;;;;;;;9.50;6.88;;;20.00;61.70;;;;;;4973961;28;20674;-48
2023/04/22 11:57:17;;;;;;;10.93;7.05;;;20.00;61.70;;;;;;4974256;28;20214;-51
2023/04/22 12:00:00;;;;;;;9.95;6.53;;;20.00;61.70;;;;;;4973578;28;20289;-48
2023/04/22 12:02:30;;;;;;;11.23;6.32;;;20.00;61.80;;;;;;4973424;28;20609;-53
2023/04/22 12:05:05;;;;;;;8.57;6.60;;;20.00;61.70;;;;;;4973887;28;20567;-53
2023/04/22 12:07:35;;;;;;;10.55;6.38;;;19.90;61.70;;;;;;4986839;28;20239;-50
2023/04/22 12:10:08;;;;;;;9.10;6.10;;;19.90;61.70;;;;;;4973653;28;20202;-53
2023/04/22 12:12:42;;;;;;;8.68;6.43;;;19.90;61.70;;;;;;4973248;28;20675;-52
2023/04/22 12:15:13;;;;;;;9.70;6.45;;;19.90;61.70;;;;;;4972710;28;20805;-53
2023/04/22 12:17:47;;;;;;;8.55;6.13;;;19.80;61.60;;;;;;4973974;28;20221;-49
2023/04/22 12:20:20;;;;;;;8.52;6.30;;;19.80;61.60;;;;;;4973042;28;20209;-54
2023/04/22 12:22:54;;;;;;;9.30;6.53;;;19.80;61.60;;;;;;4973419;28;20191;-48
2023/04/22 12:25:24;;;;;;;8.25;6.20;;;19.80;61.60;;;;;;4977576;28;20264;-49
2023/04/22 12:27:55;;;;;;;9.85;6.57;;;19.80;61.60;;;;;;4988158;28;20218;-51
2023/04/22 12:30:26;;;;;;;7.47;5.68;;;19.80;61.60;;;;;;4973235;28;20195;-53
2023/04/22 12:32:56;;;;;;;7.93;5.28;;;19.80;61.50;;;;;;4972592;28;20202;-53
2023/04/22 12:35:29;;;;;;;9.88;5.85;;;19.80;61.60;;;;;;4972896;28;20201;-52
2023/04/22 12:37:59;;;;;;;8.55;5.75;;;19.80;61.60;;;;;;4972966;28;20607;-52
2023/04/22 12:40:30;;;;;;;8.38;5.78;;;19.70;61.40;;;;;;4973561;28;20563;-49
2023/04/22 12:43:04;;;;;;;8.30;5.88;;;19.70;61.40;;;;;;4973710;28;20190;-53
2023/04/22 12:45:35;;;;;;;6.90;5.45;;;19.70;61.40;;;;;;4973016;28;20751;-51
2023/04/22 12:48:06;;;;;;;9.07;6.20;;;19.70;61.40;;;;;;4973456;28;20233;-53
2023/04/22 12:50:38;;;;;;;9.88;6.13;;;19.70;61.40;;;;;;4973293;28;20202;-49
2023/04/22 12:53:09;;;;;;;8.27;5.85;;;19.60;61.40;;;;;;4972868;28;20225;-51
2023/04/22 12:55:40;;;;;;;7.90;5.68;;;19.60;61.40;;;;;;4965384;28;20191;-53
2023/04/22 12:58:11;;;;;;;9.32;6.13;;;19.60;62.20;;;;;;4958687;28;20249;-50
2023/04/22 13:00:41;;;;;;;8.35;5.30;;;19.60;61.40;;;;;;4972518;28;20623;-51
2023/04/22 13:03:12;;;;;;;6.65;5.05;;;19.60;61.40;;;;;;4975564;28;20607;-51
2023/04/22 13:05:45;;;;;;;7.22;5.15;;;19.60;61.30;;;;;;4972715;28;20237;-50
2023/04/22 13:08:16;;;;;;;7.55;5.68;;;19.60;61.40;;;;;;4977609;28;20244;-52
2023/04/22 13:10:46;;;;;;;8.02;5.60;;;19.60;61.30;;;;;;4992261;28;20202;-51
2023/04/22 13:13:17;;;;;;;7.68;5.65;;;19.60;61.30;;;;;;4991963;28;20658;-52